sensor_id;sensor_type;location;lat;lon;timestamp;temperature;humidity
27858;DHT22;16852;51.446;6.528;2023-02-28T00:01:46;1.90;99.90
27858;DHT22;16852;51.446;6.528;2023-02-28T00:03:47;1.80;99.90
27858;DHT22;16852;51.446;6.528;2023-02-28T00:05:47;1.80;99.90
27858;DHT22;16852;51.446;6.528;2023-02-28T00:07:49;1.70;99.90
27858;DHT22;16852;51.446;6.528;2023-02-28T00:09:50;1.70;99.90
27858;DHT22;16852;51.446;6.528;2023-02-28T00:11:51;1.70;99.90
27858;DHT22;16852;51.446;6.528;2023-02-28T00:13:51;1.70;99.90
27858;DHT22;16852;51.446;6.528;2023-02-28T00:15:59;1.80;99.90
27858;DHT22;16852;51.446;6.528;2023-02-28T00:18:01;1.80;99.90
27858;DHT22;16852;51.446;6.528;2023-02-28T00:20:02;1.80;99.90
27858;DHT22;16852;51.446;6.528;2023-02-28T00:22:04;1.80;99.90
27858;DHT22;16852;51.446;6.528;2023-02-28T00:24:06;1.80;99.90
27858;DHT22;16852;51.446;6.528;2023-02-28T00:26:06;1.70;99.90
27858;DHT22;16852;51.446;6.528;2023-02-28T00:28:07;1.70;99.90
27858;DHT22;16852;51.446;6.528;2023-02-28T00:30:11;1.70;99.90
27858;DHT22;16852;51.446;6.528;2023-02-28T00:32:11;1.80;99.90
27858;DHT22;16852;51.446;6.528;2023-02-28T00:34:12;1.80;99.90
27858;DHT22;16852;51.446;6.528;2023-02-28T00:36:13;1.90;99.90
27858;DHT22;16852;51.446;6.528;2023-02-28T00:38:14;1.90;99.90
27858;DHT22;16852;51.446;6.528;2023-02-28T00:40:15;1.90;99.90
27858;DHT22;16852;51.446;6.528;2023-02-28T00:42:15;2.00;99.90
27858;DHT22;16852;51.446;6.528;2023-02-28T00:44:16;2.10;99.90
27858;DHT22;16852;51.446;6.528;2023-02-28T00:46:16;2.10;99.90
27858;DHT22;16852;51.446;6.528;2023-02-28T00:48:17;2.10;99.90
27858;DHT22;16852;51.446;6.528;2023-02-28T00:50:18;2.10;99.90
27858;DHT22;16852;51.446;6.528;2023-02-28T00:52:20;2.20;99.90
27858;DHT22;16852;51.446;6.528;2023-02-28T00:54:23;2.20;99.90
27858;DHT22;16852;51.446;6.528;2023-02-28T00:56:23;2.20;99.90
27858;DHT22;16852;51.446;6.528;2023-02-28T00:58:24;2.20;99.90
27858;DHT22;16852;51.446;6.528;2023-02-28T01:00:25;2.30;99.90
27858;DHT22;16852;51.446;6.528;2023-02-28T01:02:25;2.30;99.90
27858;DHT22;16852;51.446;6.528;2023-02-28T01:04:26;2.30;99.90
27858;DHT22;16852;51.446;6.528;2023-02-28T01:06:26;2.30;99.90
27858;DHT22;16852;51.446;6.528;2023-02-28T01:08:27;2.30;99.90
27858;DHT22;16852;51.446;6.528;2023-02-28T01:10:28;2.30;99.90
27858;DHT22;16852;51.446;6.528;2023-02-28T01:12:31;2.20;99.90
27858;DHT22;16852;51.446;6.528;2023-02-28T01:14:32;2.10;99.90
27858;DHT22;16852;51.446;6.528;2023-02-28T01:16:32;2.00;99.90
27858;DHT22;16852;51.446;6.528;2023-02-28T01:18:33;1.90;99.90
27858;DHT22;16852;51.446;6.528;2023-02-28T01:20:36;1.70;99.90
27858;DHT22;16852;51.446;6.528;2023-02-28T01:22:37;1.60;99.90
27858;DHT22;16852;51.446;6.528;2023-02-28T01:24:38;1.50;99.90
27858;DHT22;16852;51.446;6.528;2023-02-28T01:26:38;1.60;99.90
27858;DHT22;16852;51.446;6.528;2023-02-28T01:28:39;1.60;99.90
27858;DHT22;16852;51.446;6.528;2023-02-28T01:30:40;1.50;99.90
27858;DHT22;16852;51.446;6.528;2023-02-28T01:32:40;1.50;99.90
27858;DHT22;16852;51.446;6.528;2023-02-28T01:34:41;1.40;99.90
27858;DHT22;16852;51.446;6.528;2023-02-28T01:36:41;1.30;99.90
27858;DHT22;16852;51.446;6.528;2023-02-28T01:38:43;1.20;99.90
27858;DHT22;16852;51.446;6.528;2023-02-28T01:40:44;1.10;99.90
27858;DHT22;16852;51.446;6.528;2023-02-28T01:42:44;1.10;99.90
27858;DHT22;16852;51.446;6.528;2023-02-28T01:46:59;1.00;99.90
27858;DHT22;16852;51.446;6.528;2023-02-28T01:49:14;1.00;99.90
27858;DHT22;16852;51.446;6.528;2023-02-28T01:51:49;1.00;99.90
27858;DHT22;16852;51.446;6.528;2023-02-28T01:53:54;1.00;99.90
27858;DHT22;16852;51.446;6.528;2023-02-28T01:55:57;1.00;99.90
27858;DHT22;16852;51.446;6.528;2023-02-28T01:58:00;0.90;99.90
27858;DHT22;16852;51.446;6.528;2023-02-28T02:00:13;0.90;99.90
27858;DHT22;16852;51.446;6.528;2023-02-28T02:02:17;0.80;99.90
27858;DHT22;16852;51.446;6.528;2023-02-28T02:04:19;0.70;99.90
27858;DHT22;16852;51.446;6.528;2023-02-28T02:06:36;0.70;99.90
27858;DHT22;16852;51.446;6.528;2023-02-28T02:08:37;0.70;99.90
27858;DHT22;16852;51.446;6.528;2023-02-28T02:10:50;0.60;99.90
27858;DHT22;16852;51.446;6.528;2023-02-28T02:13:19;0.60;99.90
27858;DHT22;16852;51.446;6.528;2023-02-28T02:15:49;0.50;99.90
27858;DHT22;16852;51.446;6.528;2023-02-28T02:17:57;0.50;99.90
27858;DHT22;16852;51.446;6.528;2023-02-28T02:20:16;0.40;99.90
27858;DHT22;16852;51.446;6.528;2023-02-28T02:22:46;0.40;99.90
27858;DHT22;16852;51.446;6.528;2023-02-28T02:37:13;0.30;99.90
27858;DHT22;16852;51.446;6.528;2023-02-28T02:39:36;0.30;99.90
27858;DHT22;16852;51.446;6.528;2023-02-28T02:41:54;0.40;99.90
27858;DHT22;16852;51.446;6.528;2023-02-28T02:44:18;0.50;99.90
27858;DHT22;16852;51.446;6.528;2023-02-28T02:46:24;0.50;99.90
27858;DHT22;16852;51.446;6.528;2023-02-28T02:48:30;0.50;99.90
27858;DHT22;16852;51.446;6.528;2023-02-28T02:50:43;0.60;99.90
27858;DHT22;16852;51.446;6.528;2023-02-28T02:52:49;0.60;99.90
27858;DHT22;16852;51.446;6.528;2023-02-28T02:54:54;0.70;99.90
27858;DHT22;16852;51.446;6.528;2023-02-28T02:56:59;0.80;99.90
27858;DHT22;16852;51.446;6.528;2023-02-28T02:59:03;0.80;99.90
27858;DHT22;16852;51.446;6.528;2023-02-28T03:01:05;1.00;99.90
27858;DHT22;16852;51.446;6.528;2023-02-28T03:03:07;1.00;99.90
27858;DHT22;16852;51.446;6.528;2023-02-28T03:05:21;1.10;99.90
27858;DHT22;16852;51.446;6.528;2023-02-28T03:07:25;1.10;99.90
27858;DHT22;16852;51.446;6.528;2023-02-28T03:09:26;1.20;99.90
27858;DHT22;16852;51.446;6.528;2023-02-28T03:11:27;1.20;99.90
27858;DHT22;16852;51.446;6.528;2023-02-28T03:18:36;1.40;99.90
27858;DHT22;16852;51.446;6.528;2023-02-28T03:21:06;1.40;99.90
27858;DHT22;16852;51.446;6.528;2023-02-28T03:23:20;1.50;99.90
27858;DHT22;16852;51.446;6.528;2023-02-28T03:27:55;1.60;99.90
27858;DHT22;16852;51.446;6.528;2023-02-28T03:30:04;1.60;99.90
27858;DHT22;16852;51.446;6.528;2023-02-28T03:32:24;1.60;99.90
27858;DHT22;16852;51.446;6.528;2023-02-28T03:34:33;1.60;99.90
27858;DHT22;16852;51.446;6.528;2023-02-28T03:36:49;1.60;99.90
27858;DHT22;16852;51.446;6.528;2023-02-28T03:39:00;1.50;99.90
27858;DHT22;16852;51.446;6.528;2023-02-28T03:41:24;1.40;99.90
27858;DHT22;16852;51.446;6.528;2023-02-28T03:43:29;1.10;99.90
27858;DHT22;16852;51.446;6.528;2023-02-28T03:45:35;1.00;99.90
27858;DHT22;16852;51.446;6.528;2023-02-28T03:47:55;0.90;99.90
27858;DHT22;16852;51.446;6.528;2023-02-28T03:50:24;0.90;99.90
27858;DHT22;16852;51.446;6.528;2023-02-28T03:52:27;0.90;99.90
27858;DHT22;16852;51.446;6.528;2023-02-28T03:54:34;0.90;99.90
27858;DHT22;16852;51.446;6.528;2023-02-28T03:56:45;0.80;99.90
27858;DHT22;16852;51.446;6.528;2023-02-28T03:58:57;0.70;99.90
27858;DHT22;16852;51.446;6.528;2023-02-28T04:01:09;0.70;99.90
27858;DHT22;16852;51.446;6.528;2023-02-28T04:03:11;0.60;99.90
27858;DHT22;16852;51.446;6.528;2023-02-28T04:05:12;0.60;99.90
27858;DHT22;16852;51.446;6.528;2023-02-28T04:07:12;0.60;99.90
27858;DHT22;16852;51.446;6.528;2023-02-28T04:09:14;0.60;99.90
27858;DHT22;16852;51.446;6.528;2023-02-28T04:11:22;0.50;99.90
27858;DHT22;16852;51.446;6.528;2023-02-28T04:13:24;0.40;99.90
27858;DHT22;16852;51.446;6.528;2023-02-28T04:15:24;0.40;99.90
27858;DHT22;16852;51.446;6.528;2023-02-28T04:17:27;0.40;99.90
27858;DHT22;16852;51.446;6.528;2023-02-28T04:19:28;0.50;99.90
27858;DHT22;16852;51.446;6.528;2023-02-28T04:21:29;0.40;99.90
27858;DHT22;16852;51.446;6.528;2023-02-28T04:23:30;0.40;99.90
27858;DHT22;16852;51.446;6.528;2023-02-28T04:25:31;0.40;99.90
27858;DHT22;16852;51.446;6.528;2023-02-28T04:27:32;0.20;99.90
27858;DHT22;16852;51.446;6.528;2023-02-28T04:29:32;0.20;99.90
27858;DHT22;16852;51.446;6.528;2023-02-28T04:31:33;0.10;99.90
27858;DHT22;16852;51.446;6.528;2023-02-28T04:33:34;0.10;99.90
27858;DHT22;16852;51.446;6.528;2023-02-28T04:35:34;0.10;99.90
27858;DHT22;16852;51.446;6.528;2023-02-28T04:37:35;0.10;99.90
27858;DHT22;16852;51.446;6.528;2023-02-28T04:39:37;0.00;99.90
27858;DHT22;16852;51.446;6.528;2023-02-28T04:41:37;0.00;99.90
27858;DHT22;16852;51.446;6.528;2023-02-28T04:43:38;-0.10;99.90
27858;DHT22;16852;51.446;6.528;2023-02-28T04:45:39;-0.10;99.90
27858;DHT22;16852;51.446;6.528;2023-02-28T04:47:39;-0.10;99.90
27858;DHT22;16852;51.446;6.528;2023-02-28T04:49:40;-0.10;99.90
27858;DHT22;16852;51.446;6.528;2023-02-28T04:51:42;0.00;99.90
27858;DHT22;16852;51.446;6.528;2023-02-28T04:53:43;0.00;99.90
27858;DHT22;16852;51.446;6.528;2023-02-28T04:55:44;0.00;99.90
27858;DHT22;16852;51.446;6.528;2023-02-28T04:57:44;0.10;99.90
27858;DHT22;16852;51.446;6.528;2023-02-28T04:59:45;0.00;99.90
27858;DHT22;16852;51.446;6.528;2023-02-28T05:01:47;0.00;99.90
27858;DHT22;16852;51.446;6.528;2023-02-28T05:03:49;0.00;99.90
27858;DHT22;16852;51.446;6.528;2023-02-28T05:05:49;0.00;99.90
27858;DHT22;16852;51.446;6.528;2023-02-28T05:07:50;-0.10;99.90
27858;DHT22;16852;51.446;6.528;2023-02-28T05:09:50;-0.10;99.90
27858;DHT22;16852;51.446;6.528;2023-02-28T05:11:51;-0.10;99.90
27858;DHT22;16852;51.446;6.528;2023-02-28T05:13:52;0.00;99.90
27858;DHT22;16852;51.446;6.528;2023-02-28T05:15:55;-0.10;99.90
27858;DHT22;16852;51.446;6.528;2023-02-28T05:17:55;-0.20;99.90
27858;DHT22;16852;51.446;6.528;2023-02-28T05:19:56;-0.20;99.90
27858;DHT22;16852;51.446;6.528;2023-02-28T05:21:56;-0.40;99.90
27858;DHT22;16852;51.446;6.528;2023-02-28T05:24:03;-0.50;99.90
27858;DHT22;16852;51.446;6.528;2023-02-28T05:26:04;-0.50;99.90
27858;DHT22;16852;51.446;6.528;2023-02-28T05:28:05;-0.60;99.90
27858;DHT22;16852;51.446;6.528;2023-02-28T05:30:06;-0.60;99.90
27858;DHT22;16852;51.446;6.528;2023-02-28T05:32:11;-0.60;99.90
27858;DHT22;16852;51.446;6.528;2023-02-28T05:34:12;-0.70;99.90
27858;DHT22;16852;51.446;6.528;2023-02-28T05:36:13;-0.80;99.90
27858;DHT22;16852;51.446;6.528;2023-02-28T05:38:13;-0.90;99.90
27858;DHT22;16852;51.446;6.528;2023-02-28T05:40:14;-0.90;99.90
27858;DHT22;16852;51.446;6.528;2023-02-28T05:42:15;-1.00;99.90
27858;DHT22;16852;51.446;6.528;2023-02-28T05:44:16;-1.00;99.90
27858;DHT22;16852;51.446;6.528;2023-02-28T05:46:17;-1.00;99.90
27858;DHT22;16852;51.446;6.528;2023-02-28T05:48:17;-1.10;99.90
27858;DHT22;16852;51.446;6.528;2023-02-28T05:50:18;-1.00;99.90
27858;DHT22;16852;51.446;6.528;2023-02-28T05:52:19;-1.00;99.90
27858;DHT22;16852;51.446;6.528;2023-02-28T05:54:19;-1.00;99.90
27858;DHT22;16852;51.446;6.528;2023-02-28T05:56:20;-1.00;99.90
27858;DHT22;16852;51.446;6.528;2023-02-28T05:58:21;-1.00;99.90
27858;DHT22;16852;51.446;6.528;2023-02-28T06:00:22;-1.00;99.90
27858;DHT22;16852;51.446;6.528;2023-02-28T06:02:23;-1.00;99.90
27858;DHT22;16852;51.446;6.528;2023-02-28T06:04:23;-1.00;99.90
27858;DHT22;16852;51.446;6.528;2023-02-28T06:06:24;-0.90;99.90
27858;DHT22;16852;51.446;6.528;2023-02-28T06:08:24;-0.90;99.90
27858;DHT22;16852;51.446;6.528;2023-02-28T06:10:25;-0.90;99.90
27858;DHT22;16852;51.446;6.528;2023-02-28T06:12:26;-0.90;99.90
27858;DHT22;16852;51.446;6.528;2023-02-28T06:14:26;-0.90;99.90
27858;DHT22;16852;51.446;6.528;2023-02-28T06:16:28;-0.90;99.90
27858;DHT22;16852;51.446;6.528;2023-02-28T06:18:29;-0.80;99.90
27858;DHT22;16852;51.446;6.528;2023-02-28T06:20:30;-0.90;99.90
27858;DHT22;16852;51.446;6.528;2023-02-28T06:22:31;-0.90;99.90
27858;DHT22;16852;51.446;6.528;2023-02-28T06:24:32;-0.80;99.90
27858;DHT22;16852;51.446;6.528;2023-02-28T06:26:32;-0.80;99.90
27858;DHT22;16852;51.446;6.528;2023-02-28T06:28:33;-0.80;99.90
27858;DHT22;16852;51.446;6.528;2023-02-28T06:30:34;-0.90;99.90
27858;DHT22;16852;51.446;6.528;2023-02-28T06:32:34;-0.80;99.90
27858;DHT22;16852;51.446;6.528;2023-02-28T06:34:36;-0.90;99.90
27858;DHT22;16852;51.446;6.528;2023-02-28T06:36:37;-0.90;99.90
27858;DHT22;16852;51.446;6.528;2023-02-28T06:38:38;-0.80;99.90
27858;DHT22;16852;51.446;6.528;2023-02-28T06:40:39;-0.80;99.90
27858;DHT22;16852;51.446;6.528;2023-02-28T06:42:39;-0.80;99.90
27858;DHT22;16852;51.446;6.528;2023-02-28T06:44:40;-0.70;99.90
27858;DHT22;16852;51.446;6.528;2023-02-28T06:46:42;-0.80;99.90
27858;DHT22;16852;51.446;6.528;2023-02-28T06:48:43;-0.70;99.90
27858;DHT22;16852;51.446;6.528;2023-02-28T06:50:44;-0.70;99.90
27858;DHT22;16852;51.446;6.528;2023-02-28T06:52:45;-0.80;99.90
27858;DHT22;16852;51.446;6.528;2023-02-28T06:54:46;-0.80;99.90
27858;DHT22;16852;51.446;6.528;2023-02-28T06:56:46;-0.70;99.90
27858;DHT22;16852;51.446;6.528;2023-02-28T06:58:50;-0.70;99.90
27858;DHT22;16852;51.446;6.528;2023-02-28T07:00:53;-0.70;99.90
27858;DHT22;16852;51.446;6.528;2023-02-28T07:02:53;-0.60;99.90
27858;DHT22;16852;51.446;6.528;2023-02-28T07:04:55;-0.50;99.90
27858;DHT22;16852;51.446;6.528;2023-02-28T07:06:55;-0.30;99.90
27858;DHT22;16852;51.446;6.528;2023-02-28T07:08:57;-0.20;99.90
27858;DHT22;16852;51.446;6.528;2023-02-28T07:10:58;-0.10;99.90
27858;DHT22;16852;51.446;6.528;2023-02-28T07:13:00;0.00;99.90
27858;DHT22;16852;51.446;6.528;2023-02-28T07:15:00;0.10;99.90
27858;DHT22;16852;51.446;6.528;2023-02-28T07:17:01;0.20;99.90
27858;DHT22;16852;51.446;6.528;2023-02-28T07:19:02;0.20;99.90
27858;DHT22;16852;51.446;6.528;2023-02-28T07:21:04;0.20;99.90
27858;DHT22;16852;51.446;6.528;2023-02-28T07:23:05;0.30;99.90
27858;DHT22;16852;51.446;6.528;2023-02-28T07:25:05;0.40;99.90
27858;DHT22;16852;51.446;6.528;2023-02-28T07:27:06;0.40;99.90
27858;DHT22;16852;51.446;6.528;2023-02-28T07:29:07;0.70;99.90
27858;DHT22;16852;51.446;6.528;2023-02-28T07:31:08;0.80;99.90
27858;DHT22;16852;51.446;6.528;2023-02-28T07:33:10;0.90;99.90
27858;DHT22;16852;51.446;6.528;2023-02-28T07:35:10;1.10;99.90
27858;DHT22;16852;51.446;6.528;2023-02-28T07:37:11;1.20;99.90
27858;DHT22;16852;51.446;6.528;2023-02-28T07:39:12;1.40;99.90
27858;DHT22;16852;51.446;6.528;2023-02-28T07:41:13;1.60;99.90
27858;DHT22;16852;51.446;6.528;2023-02-28T07:43:14;1.60;99.90
27858;DHT22;16852;51.446;6.528;2023-02-28T07:45:14;1.80;99.90
27858;DHT22;16852;51.446;6.528;2023-02-28T07:47:15;1.90;99.90
27858;DHT22;16852;51.446;6.528;2023-02-28T07:49:15;2.00;99.90
27858;DHT22;16852;51.446;6.528;2023-02-28T07:51:16;2.20;99.90
27858;DHT22;16852;51.446;6.528;2023-02-28T07:53:17;2.30;99.90
27858;DHT22;16852;51.446;6.528;2023-02-28T07:55:18;2.50;99.90
27858;DHT22;16852;51.446;6.528;2023-02-28T07:57:18;2.60;99.90
27858;DHT22;16852;51.446;6.528;2023-02-28T07:59:19;2.60;99.90
27858;DHT22;16852;51.446;6.528;2023-02-28T08:01:19;2.70;99.90
27858;DHT22;16852;51.446;6.528;2023-02-28T08:03:21;2.90;99.90
27858;DHT22;16852;51.446;6.528;2023-02-28T08:05:22;3.00;99.90
27858;DHT22;16852;51.446;6.528;2023-02-28T08:07:22;3.20;99.90
27858;DHT22;16852;51.446;6.528;2023-02-28T08:09:23;3.20;99.90
27858;DHT22;16852;51.446;6.528;2023-02-28T08:11:24;3.40;99.90
27858;DHT22;16852;51.446;6.528;2023-02-28T08:13:24;3.60;99.90
27858;DHT22;16852;51.446;6.528;2023-02-28T08:15:25;3.80;99.90
27858;DHT22;16852;51.446;6.528;2023-02-28T08:17:25;4.20;99.90
27858;DHT22;16852;51.446;6.528;2023-02-28T08:19:26;4.40;99.90
27858;DHT22;16852;51.446;6.528;2023-02-28T08:21:27;4.50;99.90
27858;DHT22;16852;51.446;6.528;2023-02-28T08:23:27;4.70;99.90
27858;DHT22;16852;51.446;6.528;2023-02-28T08:25:28;4.70;99.90
27858;DHT22;16852;51.446;6.528;2023-02-28T08:27:29;4.90;99.90
27858;DHT22;16852;51.446;6.528;2023-02-28T08:29:29;5.20;99.90
27858;DHT22;16852;51.446;6.528;2023-02-28T08:31:30;5.30;99.90
27858;DHT22;16852;51.446;6.528;2023-02-28T08:33:31;5.50;99.90
27858;DHT22;16852;51.446;6.528;2023-02-28T08:35:31;5.70;99.90
27858;DHT22;16852;51.446;6.528;2023-02-28T08:37:32;6.00;99.90
27858;DHT22;16852;51.446;6.528;2023-02-28T08:39:36;5.80;99.60
27858;DHT22;16852;51.446;6.528;2023-02-28T08:41:37;5.90;99.00
27858;DHT22;16852;51.446;6.528;2023-02-28T08:43:38;5.80;98.00
27858;DHT22;16852;51.446;6.528;2023-02-28T08:45:39;5.90;98.80
27858;DHT22;16852;51.446;6.528;2023-02-28T08:47:40;5.90;95.40
27858;DHT22;16852;51.446;6.528;2023-02-28T08:49:40;5.80;96.50
27858;DHT22;16852;51.446;6.528;2023-02-28T08:51:41;5.80;95.60
27858;DHT22;16852;51.446;6.528;2023-02-28T08:53:42;6.00;96.50
27858;DHT22;16852;51.446;6.528;2023-02-28T08:55:42;5.60;95.00
27858;DHT22;16852;51.446;6.528;2023-02-28T08:57:43;5.80;94.90
27858;DHT22;16852;51.446;6.528;2023-02-28T08:59:43;6.00;94.70
27858;DHT22;16852;51.446;6.528;2023-02-28T09:01:44;6.00;93.70
27858;DHT22;16852;51.446;6.528;2023-02-28T09:03:46;5.80;91.70
27858;DHT22;16852;51.446;6.528;2023-02-28T09:05:57;5.50;91.40
27858;DHT22;16852;51.446;6.528;2023-02-28T09:07:58;5.70;91.40
27858;DHT22;16852;51.446;6.528;2023-02-28T09:09:59;5.60;88.40
27858;DHT22;16852;51.446;6.528;2023-02-28T09:11:59;5.70;90.50
27858;DHT22;16852;51.446;6.528;2023-02-28T09:14:01;5.70;91.30
27858;DHT22;16852;51.446;6.528;2023-02-28T09:16:05;5.50;89.50
27858;DHT22;16852;51.446;6.528;2023-02-28T09:18:06;5.60;90.80
27858;DHT22;16852;51.446;6.528;2023-02-28T09:20:07;5.50;86.70
27858;DHT22;16852;51.446;6.528;2023-02-28T09:22:08;5.60;85.10
27858;DHT22;16852;51.446;6.528;2023-02-28T09:24:08;5.90;91.30
27858;DHT22;16852;51.446;6.528;2023-02-28T09:26:16;5.90;86.40
27858;DHT22;16852;51.446;6.528;2023-02-28T09:28:18;6.00;84.50
27858;DHT22;16852;51.446;6.528;2023-02-28T09:30:19;6.10;84.70
27858;DHT22;16852;51.446;6.528;2023-02-28T09:32:19;5.60;86.50
27858;DHT22;16852;51.446;6.528;2023-02-28T09:34:20;5.60;85.70
27858;DHT22;16852;51.446;6.528;2023-02-28T09:36:22;5.30;85.10
27858;DHT22;16852;51.446;6.528;2023-02-28T09:38:23;5.50;86.50
27858;DHT22;16852;51.446;6.528;2023-02-28T09:40:24;5.30;89.20
27858;DHT22;16852;51.446;6.528;2023-02-28T09:42:33;5.40;85.20
27858;DHT22;16852;51.446;6.528;2023-02-28T09:44:38;5.50;85.10
27858;DHT22;16852;51.446;6.528;2023-02-28T09:46:47;5.50;86.40
27858;DHT22;16852;51.446;6.528;2023-02-28T09:48:49;5.70;86.60
27858;DHT22;16852;51.446;6.528;2023-02-28T09:50:52;5.60;85.80
27858;DHT22;16852;51.446;6.528;2023-02-28T09:52:56;5.40;82.90
27858;DHT22;16852;51.446;6.528;2023-02-28T09:55:22;5.30;82.60
27858;DHT22;16852;51.446;6.528;2023-02-28T09:57:33;5.30;82.10
27858;DHT22;16852;51.446;6.528;2023-02-28T10:01:49;5.70;88.00
27858;DHT22;16852;51.446;6.528;2023-02-28T10:04:05;5.70;80.60
27858;DHT22;16852;51.446;6.528;2023-02-28T10:06:20;5.90;86.30
27858;DHT22;16852;51.446;6.528;2023-02-28T10:08:50;5.80;79.50
27858;DHT22;16852;51.446;6.528;2023-02-28T10:11:02;6.10;81.30
27858;DHT22;16852;51.446;6.528;2023-02-28T10:15:47;6.50;85.50
27858;DHT22;16852;51.446;6.528;2023-02-28T10:17:53;6.70;82.70
27858;DHT22;16852;51.446;6.528;2023-02-28T10:20:02;6.60;77.30
27858;DHT22;16852;51.446;6.528;2023-02-28T10:22:33;6.60;77.10
27858;DHT22;16852;51.446;6.528;2023-02-28T10:24:45;6.50;77.50
27858;DHT22;16852;51.446;6.528;2023-02-28T10:26:47;6.60;76.70
27858;DHT22;16852;51.446;6.528;2023-02-28T10:28:48;6.80;81.30
27858;DHT22;16852;51.446;6.528;2023-02-28T10:30:51;6.70;74.60
27858;DHT22;16852;51.446;6.528;2023-02-28T10:32:53;6.70;76.60
27858;DHT22;16852;51.446;6.528;2023-02-28T10:37:12;6.50;76.40
27858;DHT22;16852;51.446;6.528;2023-02-28T10:41:42;6.60;74.40
27858;DHT22;16852;51.446;6.528;2023-02-28T10:43:44;6.40;74.60
27858;DHT22;16852;51.446;6.528;2023-02-28T10:50:35;6.40;75.30
27858;DHT22;16852;51.446;6.528;2023-02-28T10:52:40;6.40;74.30
27858;DHT22;16852;51.446;6.528;2023-02-28T10:54:41;6.30;74.30
27858;DHT22;16852;51.446;6.528;2023-02-28T10:56:41;6.40;76.10
27858;DHT22;16852;51.446;6.528;2023-02-28T10:58:58;6.40;76.40
27858;DHT22;16852;51.446;6.528;2023-02-28T11:01:00;6.20;74.70
27858;DHT22;16852;51.446;6.528;2023-02-28T11:03:00;6.30;76.60
27858;DHT22;16852;51.446;6.528;2023-02-28T11:05:01;6.30;75.10
27858;DHT22;16852;51.446;6.528;2023-02-28T11:09:27;5.90;76.20
27858;DHT22;16852;51.446;6.528;2023-02-28T11:11:40;6.00;77.00
27858;DHT22;16852;51.446;6.528;2023-02-28T11:13:43;6.30;84.60
27858;DHT22;16852;51.446;6.528;2023-02-28T11:15:56;6.40;75.10
27858;DHT22;16852;51.446;6.528;2023-02-28T11:20:22;6.50;80.50
27858;DHT22;16852;51.446;6.528;2023-02-28T11:22:27;6.30;74.80
27858;DHT22;16852;51.446;6.528;2023-02-28T11:24:34;6.30;75.10
27858;DHT22;16852;51.446;6.528;2023-02-28T11:26:38;6.40;76.60
27858;DHT22;16852;51.446;6.528;2023-02-28T11:28:40;6.40;75.60
27858;DHT22;16852;51.446;6.528;2023-02-28T11:30:41;6.40;76.10
27858;DHT22;16852;51.446;6.528;2023-02-28T11:32:48;6.40;77.60
27858;DHT22;16852;51.446;6.528;2023-02-28T11:37:14;6.40;77.60
27858;DHT22;16852;51.446;6.528;2023-02-28T11:39:16;6.40;77.00
27858;DHT22;16852;51.446;6.528;2023-02-28T11:41:38;6.40;76.10
27858;DHT22;16852;51.446;6.528;2023-02-28T11:44:28;6.30;76.40
27858;DHT22;16852;51.446;6.528;2023-02-28T11:46:47;6.30;76.60
27858;DHT22;16852;51.446;6.528;2023-02-28T11:51:09;6.40;78.50
27858;DHT22;16852;51.446;6.528;2023-02-28T11:53:39;6.50;76.50
27858;DHT22;16852;51.446;6.528;2023-02-28T11:56:06;6.20;74.60
27858;DHT22;16852;51.446;6.528;2023-02-28T12:00:43;5.60;82.10
27858;DHT22;16852;51.446;6.528;2023-02-28T12:03:07;5.70;82.40
27858;DHT22;16852;51.446;6.528;2023-02-28T12:07:50;5.50;79.00
27858;DHT22;16852;51.446;6.528;2023-02-28T12:24:52;5.70;78.70
27858;DHT22;16852;51.446;6.528;2023-02-28T12:26:58;5.70;77.50
27858;DHT22;16852;51.446;6.528;2023-02-28T12:29:08;5.80;77.60
27858;DHT22;16852;51.446;6.528;2023-02-28T12:31:36;5.90;78.40
27858;DHT22;16852;51.446;6.528;2023-02-28T12:33:50;6.00;78.50
27858;DHT22;16852;51.446;6.528;2023-02-28T12:35:58;6.00;76.40
27858;DHT22;16852;51.446;6.528;2023-02-28T12:38:14;6.00;81.10
27858;DHT22;16852;51.446;6.528;2023-02-28T12:40:22;5.80;78.80
27858;DHT22;16852;51.446;6.528;2023-02-28T12:42:29;5.90;84.30
27858;DHT22;16852;51.446;6.528;2023-02-28T12:44:32;5.80;84.40
27858;DHT22;16852;51.446;6.528;2023-02-28T12:46:34;5.80;86.00
27858;DHT22;16852;51.446;6.528;2023-02-28T12:50:37;5.90;85.90
27858;DHT22;16852;51.446;6.528;2023-02-28T12:55:40;5.80;85.10
27858;DHT22;16852;51.446;6.528;2023-02-28T13:00:11;6.00;79.10
27858;DHT22;16852;51.446;6.528;2023-02-28T13:02:33;6.10;80.90
27858;DHT22;16852;51.446;6.528;2023-02-28T13:07:33;6.10;77.90
27858;DHT22;16852;51.446;6.528;2023-02-28T13:09:38;6.20;79.60
27858;DHT22;16852;51.446;6.528;2023-02-28T13:11:43;6.10;77.60
27858;DHT22;16852;51.446;6.528;2023-02-28T13:13:45;6.20;78.40
27858;DHT22;16852;51.446;6.528;2023-02-28T13:16:08;6.30;78.70
27858;DHT22;16852;51.446;6.528;2023-02-28T13:18:43;6.30;78.00
27858;DHT22;16852;51.446;6.528;2023-02-28T13:20:47;6.20;81.60
27858;DHT22;16852;51.446;6.528;2023-02-28T13:22:50;6.10;79.10
27858;DHT22;16852;51.446;6.528;2023-02-28T13:24:56;6.10;78.70
27858;DHT22;16852;51.446;6.528;2023-02-28T13:29:04;6.30;78.40
27858;DHT22;16852;51.446;6.528;2023-02-28T13:31:16;6.10;78.00
27858;DHT22;16852;51.446;6.528;2023-02-28T13:35:36;6.30;78.20
27858;DHT22;16852;51.446;6.528;2023-02-28T13:37:43;6.30;79.00
27858;DHT22;16852;51.446;6.528;2023-02-28T13:39:53;6.30;78.80
27858;DHT22;16852;51.446;6.528;2023-02-28T13:41:54;6.20;79.70
27858;DHT22;16852;51.446;6.528;2023-02-28T13:46:15;6.10;79.70
27858;DHT22;16852;51.446;6.528;2023-02-28T13:48:18;5.90;82.90
27858;DHT22;16852;51.446;6.528;2023-02-28T13:52:26;5.90;83.40
27858;DHT22;16852;51.446;6.528;2023-02-28T13:57:26;6.00;81.40
27858;DHT22;16852;51.446;6.528;2023-02-28T14:06:49;6.10;80.40
27858;DHT22;16852;51.446;6.528;2023-02-28T14:11:29;6.10;86.10
27858;DHT22;16852;51.446;6.528;2023-02-28T14:15:57;5.90;83.50
27858;DHT22;16852;51.446;6.528;2023-02-28T14:18:00;5.90;81.60
27858;DHT22;16852;51.446;6.528;2023-02-28T14:20:01;5.90;84.90
27858;DHT22;16852;51.446;6.528;2023-02-28T14:27:07;6.10;84.50
27858;DHT22;16852;51.446;6.528;2023-02-28T14:29:29;6.00;87.90
27858;DHT22;16852;51.446;6.528;2023-02-28T14:31:38;5.90;88.30
27858;DHT22;16852;51.446;6.528;2023-02-28T14:33:45;6.00;86.80
27858;DHT22;16852;51.446;6.528;2023-02-28T14:38:20;5.90;90.10
27858;DHT22;16852;51.446;6.528;2023-02-28T14:40:29;5.80;91.10
27858;DHT22;16852;51.446;6.528;2023-02-28T14:42:36;5.90;92.20
27858;DHT22;16852;51.446;6.528;2023-02-28T14:44:38;5.90;95.80
27858;DHT22;16852;51.446;6.528;2023-02-28T14:46:40;5.90;95.00
27858;DHT22;16852;51.446;6.528;2023-02-28T14:48:41;5.90;92.40
27858;DHT22;16852;51.446;6.528;2023-02-28T14:50:51;5.90;94.10
27858;DHT22;16852;51.446;6.528;2023-02-28T14:52:53;5.70;93.10
27858;DHT22;16852;51.446;6.528;2023-02-28T14:55:00;5.80;94.10
27858;DHT22;16852;51.446;6.528;2023-02-28T14:57:01;5.80;93.50
27858;DHT22;16852;51.446;6.528;2023-02-28T14:59:01;5.80;94.10
27858;DHT22;16852;51.446;6.528;2023-02-28T15:01:03;5.80;93.70
27858;DHT22;16852;51.446;6.528;2023-02-28T15:03:40;5.70;93.60
27858;DHT22;16852;51.446;6.528;2023-02-28T15:05:42;5.60;93.90